Time;durP1;ratioP1;P1;durP2;ratioP2;P2;SDS_P1;SDS_P2;PMS_P1;PMS_P2;Temp;Humidity;BMP_temperature;BMP_pressure;BME280_temperature;BME280_humidity;BME280_pressure;Samples;Min_cycle;Max_cycle;Signal;HPM_P1;HPM_P2
2021/12/02 00:00:58;;;;;;;6.93;3.50;;;;;;;;;;5077784;28;20025;-79
2021/12/02 00:03:24;;;;;;;9.48;3.38;;;;;;;;;;5076388;28;20472;-79
2021/12/02 00:05:50;;;;;;;4.45;2.65;;;;;;;;;;5077644;28;20032;-78
2021/12/02 00:08:15;;;;;;;9.43;2.60;;;;;;;;;;5077518;28;20395;-78
2021/12/02 00:10:41;;;;;;;4.32;2.25;;;;;;;;;;5077603;28;20021;-79
2021/12/02 00:13:07;;;;;;;5.80;3.05;;;;;;;;;;5077360;28;20090;-79
2021/12/02 00:15:39;;;;;;;5.35;3.13;;;;;;;;;;5077476;28;20028;-78
2021/12/02 00:24:01;;;;;;;5.05;2.75;;;;;;;;;;5077196;28;20074;-79
2021/12/02 00:26:27;;;;;;;7.78;2.42;;;;;;;;;;5076116;28;20032;-79
2021/12/02 00:28:55;;;;;;;6.30;2.83;;;;;;;;;;5059276;28;20021;-79
2021/12/02 00:31:23;;;;;;;5.10;2.53;;;;;;;;;;5077118;28;20040;-77
2021/12/02 00:33:50;;;;;;;5.65;2.20;;;;;;;;;;5076697;28;20060;-77
2021/12/02 00:36:16;;;;;;;5.40;2.67;;;;;;;;;;5077198;28;20123;-77
2021/12/02 00:38:42;;;;;;;5.40;2.78;;;;;;;;;;5076739;28;20124;-77
2021/12/02 00:41:11;;;;;;;6.03;3.05;;;;;;;;;;5092364;28;20036;-77
2021/12/02 00:43:38;;;;;;;3.45;2.40;;;;;;;;;;5076794;28;20556;-77
2021/12/02 00:46:08;;;;;;;6.43;2.65;;;;;;;;;;5059251;28;20039;-77
2021/12/02 00:48:34;;;;;;;9.73;3.10;;;;;;;;;;5077085;28;20358;-77
2021/12/02 00:50:59;;;;;;;6.20;3.22;;;;;;;;;;5076751;28;20013;-77
2021/12/02 00:53:25;;;;;;;12.45;4.05;;;;;;;;;;5075124;28;20111;-77
2021/12/02 00:55:50;;;;;;;9.13;3.47;;;;;;;;;;5075407;28;20020;-77
2021/12/02 00:58:19;;;;;;;8.43;3.47;;;;;;;;;;5058759;28;20107;-77
2021/12/02 01:00:47;;;;;;;6.78;3.78;;;;;;;;;;5075628;28;20034;-78
2021/12/02 01:03:13;;;;;;;12.48;3.97;;;;;;;;;;5075389;28;20062;-79
2021/12/02 01:05:39;;;;;;;14.60;6.25;;;;;;;;;;5058588;28;20024;-78
2021/12/02 01:08:05;;;;;;;19.20;8.70;;;;;;;;;;5058708;28;20417;-78
2021/12/02 01:10:30;;;;;;;21.23;9.30;;;;;;;;;;5058842;28;20036;-78
2021/12/02 01:12:56;;;;;;;22.58;9.52;;;;;;;;;;5075075;28;20021;-78
2021/12/02 01:15:22;;;;;;;21.85;8.75;;;;;;;;;;5075079;28;20082;-78
2021/12/02 01:17:47;;;;;;;20.08;9.13;;;;;;;;;;5075934;28;20111;-78
2021/12/02 01:20:13;;;;;;;25.75;11.85;;;;;;;;;;5076111;28;20028;-78
2021/12/02 01:22:38;;;;;;;21.83;9.95;;;;;;;;;;5076024;28;20032;-78
2021/12/02 01:25:05;;;;;;;19.55;8.50;;;;;;;;;;5076022;28;20473;-78
2021/12/02 01:27:31;;;;;;;21.27;8.63;;;;;;;;;;5074886;28;20050;-78
2021/12/02 01:29:57;;;;;;;22.30;9.63;;;;;;;;;;5058196;28;20085;-78
2021/12/02 01:32:22;;;;;;;24.92;10.20;;;;;;;;;;5041738;28;20032;-78
2021/12/02 01:34:48;;;;;;;25.58;10.52;;;;;;;;;;5074690;28;20028;-78
2021/12/02 01:37:14;;;;;;;24.02;10.40;;;;;;;;;;5041555;28;20035;-78
2021/12/02 01:39:39;;;;;;;25.63;10.80;;;;;;;;;;5075747;28;20530;-78
2021/12/02 01:42:05;;;;;;;20.38;9.15;;;;;;;;;;5075600;28;20530;-78
2021/12/02 01:44:30;;;;;;;17.58;8.65;;;;;;;;;;5057858;28;20107;-78
2021/12/02 01:46:58;;;;;;;16.65;8.43;;;;;;;;;;5075425;28;20369;-79
2021/12/02 01:49:29;;;;;;;23.70;9.75;;;;;;;;;;5075532;28;20024;-78
2021/12/02 01:51:55;;;;;;;19.33;8.90;;;;;;;;;;5075504;28;20028;-78
2021/12/02 01:54:23;;;;;;;20.17;9.73;;;;;;;;;;5075484;28;20165;-78
2021/12/02 01:56:50;;;;;;;23.60;10.52;;;;;;;;;;5075331;28;20020;-77
2021/12/02 01:59:23;;;;;;;23.48;9.68;;;;;;;;;;5075363;28;20024;-78
2021/12/02 02:01:51;;;;;;;25.35;11.63;;;;;;;;;;5057485;28;20028;-78
2021/12/02 02:04:17;;;;;;;27.67;12.40;;;;;;;;;;5075444;28;20372;-79
2021/12/02 02:07:12;;;;;;;23.38;11.10;;;;;;;;;;5074692;28;20024;-79
2021/12/02 02:09:37;;;;;;;24.80;11.40;;;;;;;;;;5075393;28;20024;-78
2021/12/02 02:12:10;;;;;;;26.85;12.15;;;;;;;;;;5073898;28;20482;-78
2021/12/02 02:14:35;;;;;;;30.33;12.02;;;;;;;;;;5075046;28;20107;-78
2021/12/02 02:17:08;;;;;;;29.38;12.68;;;;;;;;;;5074681;28;20071;-78
2021/12/02 02:19:34;;;;;;;37.60;13.50;;;;;;;;;;5074979;28;20024;-78
2021/12/02 02:21:59;;;;;;;31.55;13.35;;;;;;;;;;5074834;28;20465;-78
2021/12/02 02:24:25;;;;;;;36.38;14.02;;;;;;;;;;5074828;28;20374;-78
2021/12/02 02:26:50;;;;;;;43.65;17.45;;;;;;;;;;5040936;28;20415;-78
2021/12/02 02:29:18;;;;;;;29.83;13.40;;;;;;;;;;5073616;28;20428;-78
2021/12/02 02:31:44;;;;;;;28.23;13.18;;;;;;;;;;5074722;28;20048;-78
2021/12/02 02:34:09;;;;;;;31.52;14.32;;;;;;;;;;5074725;28;20489;-78
2021/12/02 02:36:38;;;;;;;43.10;17.35;;;;;;;;;;5074852;28;20468;-78
2021/12/02 02:39:03;;;;;;;34.10;13.75;;;;;;;;;;5074483;28;20124;-78
2021/12/02 02:41:33;;;;;;;32.38;13.80;;;;;;;;;;5074369;28;20111;-78
2021/12/02 02:44:00;;;;;;;33.83;14.30;;;;;;;;;;5074430;28;20020;-78
2021/12/02 02:46:27;;;;;;;26.17;11.65;;;;;;;;;;5040407;28;20021;-78
2021/12/02 02:48:53;;;;;;;21.17;10.60;;;;;;;;;;5073371;28;20058;-78
2021/12/02 02:51:18;;;;;;;20.10;9.52;;;;;;;;;;5074487;28;20028;-78
2021/12/02 02:53:45;;;;;;;19.75;9.85;;;;;;;;;;5074406;28;20028;-78
2021/12/02 02:56:14;;;;;;;21.42;9.18;;;;;;;;;;5074738;28;20029;-78
2021/12/02 03:04:13;;;;;;;23.73;10.15;;;;;;;;;;5059037;28;20036;-78
2021/12/02 03:11:59;;;;;;;21.27;11.15;;;;;;;;;;5074265;28;20194;-78
2021/12/02 03:14:33;;;;;;;22.85;10.90;;;;;;;;;;5056638;28;20037;-78
2021/12/02 03:17:17;;;;;;;24.30;11.65;;;;;;;;;;5073022;28;20033;-78
2021/12/02 03:19:44;;;;;;;30.58;13.52;;;;;;;;;;5074117;28;20021;-78
2021/12/02 03:22:10;;;;;;;28.33;13.02;;;;;;;;;;5072787;28;20037;-78
2021/12/02 03:24:36;;;;;;;23.42;11.40;;;;;;;;;;5074057;28;20090;-78
2021/12/02 03:27:01;;;;;;;25.77;12.45;;;;;;;;;;5074049;28;20035;-79
2021/12/02 03:29:27;;;;;;;27.55;12.60;;;;;;;;;;5074052;28;20024;-78
2021/12/02 03:31:52;;;;;;;29.30;13.80;;;;;;;;;;5039683;28;20029;-78
2021/12/02 03:34:18;;;;;;;32.65;15.15;;;;;;;;;;5072773;28;20024;-78
2021/12/02 03:36:43;;;;;;;33.88;15.55;;;;;;;;;;5073924;28;20028;-78
2021/12/02 03:39:10;;;;;;;36.90;16.60;;;;;;;;;;5072565;28;20139;-78
2021/12/02 03:41:35;;;;;;;34.83;15.45;;;;;;;;;;5072614;28;20020;-78
2021/12/02 03:44:01;;;;;;;32.72;14.95;;;;;;;;;;5072966;28;20339;-78
2021/12/02 03:46:26;;;;;;;33.70;16.30;;;;;;;;;;5073820;28;20025;-78
2021/12/02 03:48:52;;;;;;;30.90;15.02;;;;;;;;;;5073758;28;20024;-77
2021/12/02 03:51:18;;;;;;;31.33;15.15;;;;;;;;;;5073894;28;20028;-78
2021/12/02 03:53:44;;;;;;;36.10;16.83;;;;;;;;;;5073728;28;20024;-78
2021/12/02 03:56:10;;;;;;;40.38;17.60;;;;;;;;;;5073779;28;20164;-80
2021/12/02 03:58:36;;;;;;;39.90;17.17;;;;;;;;;;5073514;28;20149;-78
2021/12/02 04:01:02;;;;;;;40.03;18.65;;;;;;;;;;5074337;28;20393;-79
2021/12/02 04:03:27;;;;;;;40.88;18.02;;;;;;;;;;5073529;28;20037;-79
2021/12/02 04:05:53;;;;;;;38.70;17.08;;;;;;;;;;5073628;28;20029;-78
2021/12/02 04:08:19;;;;;;;36.38;18.15;;;;;;;;;;5073551;28;20103;-78
2021/12/02 04:10:46;;;;;;;39.58;17.30;;;;;;;;;;5073652;28;20028;-78
2021/12/02 04:13:26;;;;;;;38.45;18.23;;;;;;;;;;5073436;28;20442;-78
2021/12/02 04:15:57;;;;;;;43.88;19.27;;;;;;;;;;5073628;28;20477;-78
2021/12/02 04:18:22;;;;;;;41.90;19.33;;;;;;;;;;5073635;28;20032;-78
2021/12/02 04:20:48;;;;;;;47.05;19.23;;;;;;;;;;5073778;28;20477;-78
2021/12/02 04:23:13;;;;;;;50.40;18.30;;;;;;;;;;5073451;28;20028;-78
2021/12/02 04:25:39;;;;;;;46.95;21.20;;;;;;;;;;5073288;28;20036;-78
2021/12/02 04:28:04;;;;;;;54.55;24.33;;;;;;;;;;5073850;28;20029;-78
2021/12/02 04:30:30;;;;;;;52.30;24.77;;;;;;;;;;5077379;28;20055;-78
2021/12/02 04:32:55;;;;;;;59.38;25.63;;;;;;;;;;5076923;28;20090;-78
2021/12/02 04:35:21;;;;;;;58.20;24.33;;;;;;;;;;5077067;28;20485;-78
2021/12/02 04:37:51;;;;;;;53.95;22.05;;;;;;;;;;5076755;28;20140;-78
2021/12/02 04:40:16;;;;;;;46.90;21.67;;;;;;;;;;5075973;28;20119;-78
2021/12/02 04:42:42;;;;;;;50.17;24.05;;;;;;;;;;5075583;28;20119;-78
2021/12/02 04:45:08;;;;;;;45.35;20.77;;;;;;;;;;5076669;28;20056;-78
2021/12/02 04:47:34;;;;;;;43.97;21.50;;;;;;;;;;5076925;28;20025;-78
2021/12/02 04:49:59;;;;;;;52.95;21.60;;;;;;;;;;5076639;28;20025;-78
2021/12/02 04:52:25;;;;;;;46.08;21.05;;;;;;;;;;5076706;28;20034;-78
2021/12/02 04:54:50;;;;;;;50.95;23.10;;;;;;;;;;5076473;28;20024;-78
2021/12/02 04:57:16;;;;;;;39.67;18.70;;;;;;;;;;5076693;28;20028;-78
2021/12/02 04:59:41;;;;;;;41.38;19.88;;;;;;;;;;5076546;28;20025;-79
2021/12/02 05:02:07;;;;;;;44.20;20.48;;;;;;;;;;5076575;28;20032;-78
2021/12/02 05:04:33;;;;;;;42.15;18.25;;;;;;;;;;5076486;28;20124;-78
2021/12/02 05:06:58;;;;;;;39.95;19.50;;;;;;;;;;5076537;28;20062;-78
2021/12/02 05:09:24;;;;;;;44.55;18.42;;;;;;;;;;5076223;28;20029;-78
2021/12/02 05:11:49;;;;;;;40.42;17.92;;;;;;;;;;5076453;28;20438;-78
2021/12/02 05:14:15;;;;;;;41.40;17.90;;;;;;;;;;5076608;28;20039;-78
2021/12/02 05:16:40;;;;;;;39.17;17.95;;;;;;;;;;5076228;28;20131;-78
2021/12/02 05:19:06;;;;;;;50.17;19.88;;;;;;;;;;5076222;28;20024;-78
2021/12/02 05:21:32;;;;;;;46.38;20.83;;;;;;;;;;5058302;28;20173;-78
2021/12/02 05:23:57;;;;;;;44.58;19.65;;;;;;;;;;5075875;28;20082;-78
2021/12/02 05:26:23;;;;;;;48.08;21.42;;;;;;;;;;5076062;28;20401;-78
2021/12/02 05:28:49;;;;;;;49.33;21.48;;;;;;;;;;5074928;28;20457;-78
2021/12/02 05:31:15;;;;;;;55.00;23.67;;;;;;;;;;5076245;28;20031;-78
2021/12/02 05:33:41;;;;;;;47.28;19.55;;;;;;;;;;5075902;28;20024;-78
2021/12/02 05:36:06;;;;;;;39.88;18.88;;;;;;;;;;5075777;28;20071;-78
2021/12/02 05:38:32;;;;;;;43.95;18.20;;;;;;;;;;5075452;28;20087;-78
2021/12/02 05:40:57;;;;;;;46.92;19.15;;;;;;;;;;5073467;28;20367;-78
2021/12/02 05:43:23;;;;;;;55.42;21.70;;;;;;;;;;5075671;28;20033;-78
2021/12/02 05:45:48;;;;;;;54.35;23.70;;;;;;;;;;5075471;28;20028;-78
2021/12/02 05:48:14;;;;;;;55.03;25.38;;;;;;;;;;5075684;28;20032;-78
2021/12/02 05:50:39;;;;;;;63.13;28.27;;;;;;;;;;5075515;28;20028;-78
2021/12/02 05:53:05;;;;;;;63.33;29.00;;;;;;;;;;5041183;28;20027;-78
2021/12/02 05:55:30;;;;;;;57.22;26.50;;;;;;;;;;5075398;28;20354;-78
2021/12/02 05:57:56;;;;;;;58.55;26.10;;;;;;;;;;5075314;28;20024;-78
2021/12/02 06:00:21;;;;;;;57.72;26.23;;;;;;;;;;5075385;28;20339;-78
2021/12/02 06:02:47;;;;;;;66.50;27.45;;;;;;;;;;5075209;28;20091;-78
2021/12/02 06:05:18;;;;;;;62.03;27.77;;;;;;;;;;5075178;28;20027;-78
2021/12/02 06:07:44;;;;;;;50.08;22.52;;;;;;;;;;5073792;28;20032;-78
2021/12/02 06:10:10;;;;;;;51.35;23.13;;;;;;;;;;5041361;28;20032;-78
2021/12/02 06:12:35;;;;;;;45.97;21.77;;;;;;;;;;5075090;28;20035;-79
2021/12/02 06:15:01;;;;;;;65.70;30.83;;;;;;;;;;5075162;28;20031;-78
2021/12/02 06:17:26;;;;;;;68.07;30.42;;;;;;;;;;5075017;28;20361;-78
2021/12/02 06:19:52;;;;;;;59.58;29.65;;;;;;;;;;5073761;28;20020;-78
2021/12/02 06:22:17;;;;;;;64.50;30.48;;;;;;;;;;5074579;28;20036;-78
2021/12/02 06:24:44;;;;;;;87.60;41.90;;;;;;;;;;5074893;28;20060;-78
2021/12/02 06:27:10;;;;;;;126.55;58.20;;;;;;;;;;5075019;28;20028;-78
2021/12/02 06:29:37;;;;;;;140.43;69.38;;;;;;;;;;5073341;28;20119;-78
2021/12/02 06:32:04;;;;;;;90.43;40.70;;;;;;;;;;5074910;28;20037;-78
2021/12/02 06:34:32;;;;;;;85.25;37.97;;;;;;;;;;5074673;28;20032;-78
2021/12/02 06:36:57;;;;;;;95.43;42.55;;;;;;;;;;5074540;28;20036;-78
2021/12/02 06:39:23;;;;;;;131.88;52.53;;;;;;;;;;5074397;28;20401;-78
2021/12/02 06:41:48;;;;;;;104.25;46.45;;;;;;;;;;5074344;28;20047;-79
2021/12/02 06:44:14;;;;;;;94.90;41.05;;;;;;;;;;5074382;28;20032;-80
2021/12/02 06:46:39;;;;;;;76.55;36.42;;;;;;;;;;5074330;28;20438;-78
2021/12/02 06:49:05;;;;;;;71.82;33.50;;;;;;;;;;5074406;28;20187;-78
2021/12/02 06:51:30;;;;;;;75.38;31.00;;;;;;;;;;5073352;28;20371;-78
2021/12/02 06:53:56;;;;;;;55.97;22.75;;;;;;;;;;5074323;28;20039;-77
2021/12/02 06:56:22;;;;;;;60.10;23.35;;;;;;;;;;5074399;28;20111;-77
2021/12/02 06:58:47;;;;;;;56.55;23.45;;;;;;;;;;5074095;28;20032;-78
2021/12/02 07:01:13;;;;;;;61.20;26.40;;;;;;;;;;5074261;28;20028;-77
2021/12/02 07:03:38;;;;;;;56.15;22.88;;;;;;;;;;5074081;28;20621;-77
2021/12/02 07:06:04;;;;;;;48.60;20.63;;;;;;;;;;5073842;28;20039;-78
2021/12/02 07:08:31;;;;;;;59.28;27.05;;;;;;;;;;5074180;28;20028;-81
2021/12/02 07:10:58;;;;;;;55.38;23.05;;;;;;;;;;5073656;28;20032;-77
2021/12/02 07:13:24;;;;;;;49.85;22.92;;;;;;;;;;5074073;28;20073;-76
2021/12/02 07:15:54;;;;;;;54.08;23.92;;;;;;;;;;5074057;28;20426;-77
2021/12/02 07:18:19;;;;;;;75.18;31.10;;;;;;;;;;5072930;28;20024;-78
2021/12/02 07:20:47;;;;;;;39.22;18.17;;;;;;;;;;5072603;28;20031;-76
2021/12/02 07:23:13;;;;;;;42.70;18.73;;;;;;;;;;5073897;28;20037;-77
2021/12/02 07:25:40;;;;;;;47.55;19.83;;;;;;;;;;5074117;28;20089;-76
2021/12/02 07:28:07;;;;;;;56.08;23.70;;;;;;;;;;5073898;28;20032;-78
2021/12/02 07:30:33;;;;;;;55.63;22.70;;;;;;;;;;5072731;28;20369;-77
2021/12/02 07:32:59;;;;;;;43.67;21.33;;;;;;;;;;5073963;28;20028;-77
2021/12/02 07:35:24;;;;;;;64.55;26.65;;;;;;;;;;5073550;28;20056;-77
2021/12/02 07:37:55;;;;;;;78.55;31.08;;;;;;;;;;5073548;28;20064;-78
2021/12/02 07:40:21;;;;;;;46.60;21.52;;;;;;;;;;5073392;28;20033;-78
2021/12/02 07:42:47;;;;;;;104.22;36.60;;;;;;;;;;5073984;28;20062;-77
2021/12/02 07:45:13;;;;;;;64.90;29.38;;;;;;;;;;5073833;28;20036;-78
2021/12/02 07:47:39;;;;;;;47.88;20.73;;;;;;;;;;5073781;28;20706;-78
2021/12/02 07:50:07;;;;;;;73.13;30.95;;;;;;;;;;5073816;28;20024;-76
2021/12/02 07:52:33;;;;;;;82.82;32.13;;;;;;;;;;5074198;28;20021;-78
2021/12/02 07:54:58;;;;;;;63.60;26.15;;;;;;;;;;5073626;28;20027;-78
2021/12/02 07:57:24;;;;;;;59.85;22.27;;;;;;;;;;5055940;28;20024;-77
2021/12/02 07:59:50;;;;;;;74.28;26.95;;;;;;;;;;5055871;28;20035;-78
2021/12/02 08:02:16;;;;;;;52.90;21.75;;;;;;;;;;5072444;28;20090;-77
2021/12/02 08:04:42;;;;;;;56.05;21.92;;;;;;;;;;5076377;28;20028;-78
2021/12/02 08:07:07;;;;;;;55.42;25.80;;;;;;;;;;5077465;28;20435;-77
2021/12/02 08:09:33;;;;;;;76.00;29.92;;;;;;;;;;5077397;28;20031;-77
2021/12/02 08:12:00;;;;;;;49.75;20.42;;;;;;;;;;5077418;28;20418;-76
2021/12/02 08:14:26;;;;;;;60.92;25.98;;;;;;;;;;5075998;28;20028;-76
2021/12/02 08:16:52;;;;;;;60.80;26.48;;;;;;;;;;5076048;28;20032;-77
2021/12/02 08:19:18;;;;;;;93.43;33.60;;;;;;;;;;5076986;28;20024;-77
2021/12/02 08:21:43;;;;;;;90.70;35.03;;;;;;;;;;5076861;28;20032;-78
2021/12/02 08:24:09;;;;;;;56.00;24.08;;;;;;;;;;5076199;28;20024;-76
2021/12/02 08:26:34;;;;;;;55.15;23.25;;;;;;;;;;5077115;28;20354;-76
2021/12/02 08:29:01;;;;;;;45.53;19.77;;;;;;;;;;5077140;28;20025;-75
2021/12/02 08:31:26;;;;;;;78.32;32.92;;;;;;;;;;5076930;28;20028;-76
2021/12/02 08:33:53;;;;;;;104.47;47.90;;;;;;;;;;5075526;28;20119;-76
2021/12/02 08:36:22;;;;;;;47.53;20.77;;;;;;;;;;5076950;28;20102;-78
2021/12/02 08:38:48;;;;;;;51.47;20.63;;;;;;;;;;5075552;28;20515;-78
2021/12/02 08:41:18;;;;;;;39.65;16.73;;;;;;;;;;5076688;28;20252;-76
2021/12/02 08:43:44;;;;;;;27.58;14.63;;;;;;;;;;5076805;28;20402;-78
2021/12/02 08:46:10;;;;;;;34.75;16.10;;;;;;;;;;5076655;28;20081;-77
2021/12/02 08:48:35;;;;;;;30.52;15.35;;;;;;;;;;5076290;28;20578;-78
2021/12/02 08:51:01;;;;;;;30.77;15.07;;;;;;;;;;5075685;28;20036;-80
2021/12/02 08:53:26;;;;;;;31.25;14.85;;;;;;;;;;5076573;28;20036;-78
2021/12/02 08:55:52;;;;;;;40.35;18.20;;;;;;;;;;5076556;28;20024;-79
2021/12/02 08:58:18;;;;;;;53.33;21.15;;;;;;;;;;5076588;28;20119;-78
2021/12/02 09:00:43;;;;;;;35.83;17.38;;;;;;;;;;5076347;28;20025;-77
2021/12/02 09:03:13;;;;;;;33.30;17.33;;;;;;;;;;5075944;28;20115;-76
2021/12/02 09:05:39;;;;;;;50.83;20.83;;;;;;;;;;5075200;28;20024;-76
2021/12/02 09:08:04;;;;;;;55.53;25.90;;;;;;;;;;5076307;28;20162;-76
2021/12/02 09:10:30;;;;;;;34.65;17.27;;;;;;;;;;5076370;28;20056;-77
2021/12/02 09:12:55;;;;;;;37.45;17.42;;;;;;;;;;5076008;28;20115;-79
2021/12/02 09:15:21;;;;;;;36.22;16.98;;;;;;;;;;5076063;28;20028;-77
2021/12/02 09:17:47;;;;;;;35.35;16.50;;;;;;;;;;5074917;28;20028;-77
2021/12/02 09:20:14;;;;;;;41.47;18.65;;;;;;;;;;5076690;28;20311;-76
2021/12/02 09:22:41;;;;;;;43.85;20.88;;;;;;;;;;5076128;28;20036;-75
2021/12/02 09:25:07;;;;;;;41.85;20.25;;;;;;;;;;5076314;28;20028;-76
2021/12/02 09:27:32;;;;;;;40.80;20.48;;;;;;;;;;5076012;28;20438;-78
2021/12/02 09:29:58;;;;;;;49.85;21.05;;;;;;;;;;5075598;28;20059;-76
2021/12/02 09:32:23;;;;;;;41.88;19.50;;;;;;;;;;5081503;28;20028;-76
2021/12/02 09:34:50;;;;;;;72.13;31.42;;;;;;;;;;5078802;28;20017;-77
2021/12/02 09:37:16;;;;;;;44.65;19.20;;;;;;;;;;5080320;28;20028;-78
2021/12/02 09:39:41;;;;;;;54.45;26.95;;;;;;;;;;5080045;28;20024;-78
2021/12/02 09:42:10;;;;;;;36.08;17.00;;;;;;;;;;5077529;28;20028;-78
2021/12/02 09:44:36;;;;;;;38.13;18.02;;;;;;;;;;5074353;28;20020;-77
2021/12/02 09:47:03;;;;;;;46.50;19.75;;;;;;;;;;5075620;28;20435;-78
2021/12/02 09:49:28;;;;;;;60.72;23.58;;;;;;;;;;5074443;28;20028;-79
2021/12/02 09:54:36;;;;;;;50.65;21.42;;;;;;;;;;5075297;28;20395;-78
2021/12/02 09:57:04;;;;;;;71.03;26.17;;;;;;;;;;5075364;28;20056;-76
2021/12/02 09:59:36;;;;;;;83.47;28.92;;;;;;;;;;5074926;28;20021;-78
2021/12/02 10:02:07;;;;;;;85.88;33.08;;;;;;;;;;5075206;28;20036;-76
2021/12/02 10:04:36;;;;;;;55.83;27.50;;;;;;;;;;5075132;28;20082;-77
2021/12/02 10:07:14;;;;;;;44.70;21.37;;;;;;;;;;5075161;28;20370;-76
2021/12/02 10:09:52;;;;;;;46.92;22.50;;;;;;;;;;5075339;28;20021;-77
2021/12/02 10:12:21;;;;;;;47.95;21.85;;;;;;;;;;5074031;28;20351;-76
2021/12/02 10:14:55;;;;;;;47.00;19.90;;;;;;;;;;5074646;28;20468;-77
2021/12/02 10:23:28;;;;;;;47.15;22.75;;;;;;;;;;5074512;28;20040;-76
2021/12/02 10:25:59;;;;;;;46.45;18.48;;;;;;;;;;5016431;28;20025;-77
2021/12/02 10:28:26;;;;;;;44.47;20.80;;;;;;;;;;5069433;28;20093;-77
2021/12/02 10:30:59;;;;;;;48.65;20.73;;;;;;;;;;5073491;28;20027;-79
2021/12/02 10:33:32;;;;;;;42.22;20.15;;;;;;;;;;5074497;28;20028;-74
2021/12/02 10:35:58;;;;;;;38.97;20.48;;;;;;;;;;5074511;28;20120;-76
2021/12/02 10:38:39;;;;;;;50.63;22.10;;;;;;;;;;5073150;28;20123;-74
2021/12/02 10:41:12;;;;;;;48.58;21.50;;;;;;;;;;5074722;28;20033;-75
2021/12/02 10:44:08;;;;;;;43.33;20.85;;;;;;;;;;5074329;28;20321;-78
2021/12/02 10:46:35;;;;;;;44.55;20.77;;;;;;;;;;5074790;28;20033;-77
2021/12/02 10:49:00;;;;;;;47.78;21.95;;;;;;;;;;5056619;28;20121;-78
2021/12/02 10:51:38;;;;;;;59.22;26.02;;;;;;;;;;5073975;28;20491;-78
2021/12/02 10:54:07;;;;;;;49.00;22.75;;;;;;;;;;5071963;28;20036;-79
2021/12/02 10:56:34;;;;;;;47.08;19.55;;;;;;;;;;5074289;28;20028;-77
2021/12/02 10:59:25;;;;;;;41.45;18.80;;;;;;;;;;5039878;28;20030;-78
2021/12/02 11:01:52;;;;;;;43.90;19.02;;;;;;;;;;5074404;28;20032;-79
2021/12/02 11:04:18;;;;;;;39.40;19.33;;;;;;;;;;5072874;28;20044;-79
2021/12/02 11:06:44;;;;;;;41.30;20.00;;;;;;;;;;5072917;28;20025;-79
2021/12/02 11:09:32;;;;;;;32.67;16.88;;;;;;;;;;5074360;28;20059;-78
2021/12/02 11:12:10;;;;;;;32.85;16.48;;;;;;;;;;5073678;28;20117;-79
2021/12/02 11:14:36;;;;;;;42.58;18.00;;;;;;;;;;5074168;28;20032;-78
2021/12/02 11:17:15;;;;;;;38.40;17.48;;;;;;;;;;5073051;28;20032;-77
2021/12/02 11:19:44;;;;;;;42.55;18.05;;;;;;;;;;5071198;28;20025;-78
2021/12/02 11:22:12;;;;;;;33.07;15.07;;;;;;;;;;5073073;28;20040;-78
2021/12/02 11:24:37;;;;;;;25.95;13.35;;;;;;;;;;5074271;28;20434;-78
2021/12/02 11:27:30;;;;;;;27.70;11.85;;;;;;;;;;5072445;28;20111;-79
2021/12/02 11:29:58;;;;;;;23.42;11.48;;;;;;;;;;5073891;28;20460;-78
2021/12/02 11:32:37;;;;;;;25.45;12.45;;;;;;;;;;5074173;28;20085;-78
2021/12/02 11:35:12;;;;;;;32.80;13.77;;;;;;;;;;5073726;28;20028;-78
2021/12/02 11:37:39;;;;;;;32.00;13.98;;;;;;;;;;5072574;28;20063;-78
2021/12/02 11:40:26;;;;;;;26.95;12.35;;;;;;;;;;5076516;28;20398;-79
2021/12/02 11:42:52;;;;;;;20.25;10.93;;;;;;;;;;5077561;28;20055;-77
2021/12/02 11:45:19;;;;;;;26.77;11.70;;;;;;;;;;5076474;28;20024;-78
2021/12/02 11:47:46;;;;;;;21.95;10.38;;;;;;;;;;5076477;28;20029;-78
2021/12/02 11:50:13;;;;;;;27.15;11.40;;;;;;;;;;5076516;28;20025;-77
2021/12/02 11:52:39;;;;;;;24.45;12.32;;;;;;;;;;5077685;28;20068;-77
2021/12/02 11:55:07;;;;;;;42.75;20.70;;;;;;;;;;5077451;28;20060;-78
2021/12/02 11:57:34;;;;;;;33.28;14.85;;;;;;;;;;5077763;28;20029;-77
2021/12/02 12:00:02;;;;;;;30.30;13.20;;;;;;;;;;5076667;28;20028;-77
2021/12/02 12:02:27;;;;;;;28.33;13.27;;;;;;;;;;5076699;28;20032;-77
2021/12/02 12:05:00;;;;;;;26.08;13.85;;;;;;;;;;5076934;28;20111;-77
2021/12/02 12:07:39;;;;;;;30.83;12.60;;;;;;;;;;5076927;28;20024;-77
2021/12/02 12:10:16;;;;;;;28.02;12.98;;;;;;;;;;5075838;28;20032;-77
2021/12/02 12:12:43;;;;;;;26.73;13.20;;;;;;;;;;5076258;28;20025;-77
2021/12/02 12:15:35;;;;;;;31.52;13.93;;;;;;;;;;5059483;28;20082;-77
2021/12/02 12:18:01;;;;;;;32.22;15.40;;;;;;;;;;5075816;28;20031;-77
2021/12/02 12:20:54;;;;;;;29.60;14.65;;;;;;;;;;5075697;28;20107;-77
2021/12/02 12:23:37;;;;;;;28.38;14.90;;;;;;;;;;5077008;28;20039;-77
2021/12/02 12:26:27;;;;;;;27.92;13.38;;;;;;;;;;5075727;28;20029;-80
2021/12/02 12:29:13;;;;;;;32.50;14.20;;;;;;;;;;5075984;28;20423;-78
2021/12/02 12:34:29;;;;;;;25.48;11.80;;;;;;;;;;5077580;28;20445;-76
2021/12/02 12:36:55;;;;;;;22.13;11.10;;;;;;;;;;5074647;28;20025;-76
2021/12/02 12:39:25;;;;;;;19.70;10.23;;;;;;;;;;5074911;28;20056;-76
2021/12/02 12:42:10;;;;;;;;;;;;;;;;;;5076123;28;20374;-77
2021/12/02 12:44:52;;;;;;;28.70;11.77;;;;;;;;;;5076468;28;20318;-76
2021/12/02 12:47:19;;;;;;;24.83;11.57;;;;;;;;;;5076285;28;20024;-77
2021/12/02 12:49:47;;;;;;;22.98;11.32;;;;;;;;;;5075955;28;20181;-77
2021/12/02 12:52:16;;;;;;;24.25;12.65;;;;;;;;;;5076198;28;20029;-78
2021/12/02 12:54:42;;;;;;;26.48;12.82;;;;;;;;;;5074825;28;20365;-78
2021/12/02 12:57:08;;;;;;;24.70;11.68;;;;;;;;;;5076399;28;20026;-78
2021/12/02 12:59:55;;;;;;;29.05;12.35;;;;;;;;;;5076166;28;20035;-76
2021/12/02 13:02:21;;;;;;;33.30;13.63;;;;;;;;;;5075666;28;20453;-76
2021/12/02 13:04:48;;;;;;;33.40;16.10;;;;;;;;;;5074495;28;20024;-77
2021/12/02 13:07:16;;;;;;;33.30;16.02;;;;;;;;;;5075422;28;20017;-77
2021/12/02 13:09:54;;;;;;;36.25;18.50;;;;;;;;;;5060583;28;20091;-78
2021/12/02 13:12:25;;;;;;;25.95;14.15;;;;;;;;;;5053216;28;20025;-77
2021/12/02 13:14:52;;;;;;;28.67;13.90;;;;;;;;;;5053053;28;20029;-75
2021/12/02 13:17:43;;;;;;;38.53;19.75;;;;;;;;;;5053397;28;20021;-76
2021/12/02 13:20:21;;;;;;;38.92;17.15;;;;;;;;;;5055183;28;20112;-76
2021/12/02 13:22:47;;;;;;;49.20;16.77;;;;;;;;;;5055090;28;20028;-76
2021/12/02 13:25:26;;;;;;;70.88;23.13;;;;;;;;;;5055778;28;20021;-76
2021/12/02 13:27:52;;;;;;;45.95;19.05;;;;;;;;;;5055718;28;20021;-75
2021/12/02 13:30:18;;;;;;;43.35;17.92;;;;;;;;;;5055016;28;20032;-78
2021/12/02 13:32:50;;;;;;;32.88;15.63;;;;;;;;;;5054254;28;20021;-76
2021/12/02 13:35:25;;;;;;;41.22;16.95;;;;;;;;;;5054349;28;20028;-77
2021/12/02 13:38:04;;;;;;;77.60;31.90;;;;;;;;;;5054487;28;20071;-77
2021/12/02 13:40:36;;;;;;;73.95;29.00;;;;;;;;;;5055670;28;20024;-76
2021/12/02 13:43:01;;;;;;;46.03;20.17;;;;;;;;;;5055278;28;20413;-77
2021/12/02 13:45:29;;;;;;;48.45;23.38;;;;;;;;;;5054181;28;20614;-76
2021/12/02 13:48:21;;;;;;;93.00;36.28;;;;;;;;;;5055454;28;20021;-76
2021/12/02 13:50:49;;;;;;;127.05;43.47;;;;;;;;;;5055508;28;20032;-77
2021/12/02 13:53:15;;;;;;;123.50;41.33;;;;;;;;;;5055474;28;20423;-75
2021/12/02 13:55:44;;;;;;;51.33;20.25;;;;;;;;;;5037555;28;20060;-77
2021/12/02 14:00:40;;;;;;;85.50;29.02;;;;;;;;;;5055253;28;20442;-78
2021/12/02 14:03:16;;;;;;;80.43;27.27;;;;;;;;;;5055116;28;20075;-76
2021/12/02 14:05:52;;;;;;;66.28;24.35;;;;;;;;;;5054926;28;20466;-76
2021/12/02 14:08:19;;;;;;;54.97;21.30;;;;;;;;;;5055175;28;20127;-75
2021/12/02 14:10:44;;;;;;;57.70;22.15;;;;;;;;;;5055307;28;20387;-76
2021/12/02 14:13:11;;;;;;;54.30;21.92;;;;;;;;;;5055066;28;20082;-77
2021/12/02 14:15:38;;;;;;;53.65;21.77;;;;;;;;;;5054963;28;20053;-76
2021/12/02 14:18:20;;;;;;;55.45;21.15;;;;;;;;;;5054942;28;20032;-76
2021/12/02 14:20:50;;;;;;;50.78;21.77;;;;;;;;;;5054835;28;20028;-76
2021/12/02 14:23:20;;;;;;;41.40;20.92;;;;;;;;;;5054868;28;20045;-76
2021/12/02 14:25:49;;;;;;;59.40;24.65;;;;;;;;;;5053713;28;20396;-79
2021/12/02 14:28:28;;;;;;;58.67;23.50;;;;;;;;;;5052937;28;20033;-79
2021/12/02 14:30:58;;;;;;;51.38;23.83;;;;;;;;;;5036678;28;20028;-79
2021/12/02 14:33:29;;;;;;;62.50;29.67;;;;;;;;;;5020720;28;20430;-79
2021/12/02 14:35:58;;;;;;;;;;;;;;;;;;5054183;28;20029;-77
2021/12/02 14:38:33;;;;;;;127.85;58.53;;;;;;;;;;5053814;28;19916;-77
2021/12/02 14:41:22;;;;;;;102.43;44.00;;;;;;;;;;5053969;28;20036;-77
2021/12/02 14:44:01;;;;;;;90.85;36.92;;;;;;;;;;5052895;28;20033;-77
2021/12/02 14:46:31;;;;;;;80.75;34.58;;;;;;;;;;5054227;28;20425;-77
2021/12/02 14:49:02;;;;;;;77.80;34.83;;;;;;;;;;5054249;28;20032;-77
2021/12/02 14:51:28;;;;;;;74.13;33.22;;;;;;;;;;5053222;28;20098;-77
2021/12/02 14:53:56;;;;;;;66.95;27.45;;;;;;;;;;5054412;28;20400;-77
2021/12/02 14:56:29;;;;;;;77.30;33.47;;;;;;;;;;5054982;28;20029;-77